sensor_id;sensor_type;location;lat;lon;timestamp;P1;durP1;ratioP1;P2;durP2;ratioP2
9188;SDS011;34313;50.780;6.084;2022-11-20T00:01:38;34.87;;;19.57;;
9188;SDS011;34313;50.780;6.084;2022-11-20T00:04:03;37.40;;;19.77;;
9188;SDS011;34313;50.780;6.084;2022-11-20T00:06:29;40.60;;;20.73;;
9188;SDS011;34313;50.780;6.084;2022-11-20T00:08:55;33.27;;;19.17;;
9188;SDS011;34313;50.780;6.084;2022-11-20T00:11:22;37.17;;;19.00;;
9188;SDS011;34313;50.780;6.084;2022-11-20T00:13:49;37.77;;;19.53;;
9188;SDS011;34313;50.780;6.084;2022-11-20T00:16:18;36.20;;;19.77;;
9188;SDS011;34313;50.780;6.084;2022-11-20T00:18:45;37.67;;;19.63;;
9188;SDS011;34313;50.780;6.084;2022-11-20T00:21:12;36.90;;;19.93;;
9188;SDS011;34313;50.780;6.084;2022-11-20T00:23:39;41.17;;;20.80;;
9188;SDS011;34313;50.780;6.084;2022-11-20T00:26:05;41.10;;;21.30;;
9188;SDS011;34313;50.780;6.084;2022-11-20T00:28:31;39.90;;;21.30;;
9188;SDS011;34313;50.780;6.084;2022-11-20T00:31:01;46.63;;;22.27;;
9188;SDS011;34313;50.780;6.084;2022-11-20T00:33:27;38.50;;;20.60;;
9188;SDS011;34313;50.780;6.084;2022-11-20T00:35:53;44.53;;;21.87;;
9188;SDS011;34313;50.780;6.084;2022-11-20T00:38:18;43.03;;;21.90;;
9188;SDS011;34313;50.780;6.084;2022-11-20T00:40:43;39.73;;;20.80;;
9188;SDS011;34313;50.780;6.084;2022-11-20T00:43:09;40.67;;;21.70;;
9188;SDS011;34313;50.780;6.084;2022-11-20T00:45:34;42.93;;;21.37;;
9188;SDS011;34313;50.780;6.084;2022-11-20T00:47:59;37.20;;;21.40;;
9188;SDS011;34313;50.780;6.084;2022-11-20T00:50:25;47.63;;;22.93;;
9188;SDS011;34313;50.780;6.084;2022-11-20T00:52:50;37.27;;;20.33;;
9188;SDS011;34313;50.780;6.084;2022-11-20T00:55:15;35.83;;;19.60;;
9188;SDS011;34313;50.780;6.084;2022-11-20T00:57:41;36.00;;;19.53;;
9188;SDS011;34313;50.780;6.084;2022-11-20T01:00:06;30.70;;;17.33;;
9188;SDS011;34313;50.780;6.084;2022-11-20T01:02:32;31.30;;;17.53;;
9188;SDS011;34313;50.780;6.084;2022-11-20T01:04:57;33.93;;;19.83;;
9188;SDS011;34313;50.780;6.084;2022-11-20T01:07:22;31.23;;;17.67;;
9188;SDS011;34313;50.780;6.084;2022-11-20T01:09:48;33.27;;;18.80;;
9188;SDS011;34313;50.780;6.084;2022-11-20T01:12:13;30.33;;;18.10;;
9188;SDS011;34313;50.780;6.084;2022-11-20T01:14:38;31.43;;;17.27;;
9188;SDS011;34313;50.780;6.084;2022-11-20T01:17:04;33.93;;;18.70;;
9188;SDS011;34313;50.780;6.084;2022-11-20T01:19:29;35.57;;;19.73;;
9188;SDS011;34313;50.780;6.084;2022-11-20T01:21:55;34.73;;;18.83;;
9188;SDS011;34313;50.780;6.084;2022-11-20T01:24:20;33.67;;;18.87;;
9188;SDS011;34313;50.780;6.084;2022-11-20T01:26:48;33.93;;;17.80;;
9188;SDS011;34313;50.780;6.084;2022-11-20T01:29:21;37.53;;;19.70;;
9188;SDS011;34313;50.780;6.084;2022-11-20T01:31:48;38.73;;;19.10;;
9188;SDS011;34313;50.780;6.084;2022-11-20T01:34:15;34.00;;;18.07;;
9188;SDS011;34313;50.780;6.084;2022-11-20T01:36:43;31.90;;;18.23;;
9188;SDS011;34313;50.780;6.084;2022-11-20T01:41:42;41.83;;;19.97;;
9188;SDS011;34313;50.780;6.084;2022-11-20T01:47:14;36.43;;;18.07;;
9188;SDS011;34313;50.780;6.084;2022-11-20T01:50:05;36.80;;;19.27;;
9188;SDS011;34313;50.780;6.084;2022-11-20T01:52:45;37.10;;;18.50;;
9188;SDS011;34313;50.780;6.084;2022-11-20T01:55:20;39.37;;;19.90;;
9188;SDS011;34313;50.780;6.084;2022-11-20T01:57:50;36.50;;;18.63;;
9188;SDS011;34313;50.780;6.084;2022-11-20T02:00:17;36.07;;;19.10;;
9188;SDS011;34313;50.780;6.084;2022-11-20T02:02:46;35.60;;;19.30;;
9188;SDS011;34313;50.780;6.084;2022-11-20T02:06:00;34.77;;;18.40;;
9188;SDS011;34313;50.780;6.084;2022-11-20T02:08:11;41.30;;;19.47;;
9188;SDS011;34313;50.780;6.084;2022-11-20T02:10:37;37.47;;;19.67;;
9188;SDS011;34313;50.780;6.084;2022-11-20T02:13:03;33.63;;;18.40;;
9188;SDS011;34313;50.780;6.084;2022-11-20T02:15:47;34.53;;;18.73;;
9188;SDS011;34313;50.780;6.084;2022-11-20T02:18:14;42.20;;;19.53;;
9188;SDS011;34313;50.780;6.084;2022-11-20T02:20:42;36.80;;;19.60;;
9188;SDS011;34313;50.780;6.084;2022-11-20T02:23:16;30.90;;;18.03;;
9188;SDS011;34313;50.780;6.084;2022-11-20T02:25:50;33.07;;;18.63;;
9188;SDS011;34313;50.780;6.084;2022-11-20T02:28:17;34.93;;;19.27;;
9188;SDS011;34313;50.780;6.084;2022-11-20T02:30:43;37.77;;;20.13;;
9188;SDS011;34313;50.780;6.084;2022-11-20T02:33:08;38.77;;;20.70;;
9188;SDS011;34313;50.780;6.084;2022-11-20T02:38:00;36.43;;;19.27;;
9188;SDS011;34313;50.780;6.084;2022-11-20T02:40:27;32.37;;;19.53;;
9188;SDS011;34313;50.780;6.084;2022-11-20T02:42:56;31.80;;;18.40;;
9188;SDS011;34313;50.780;6.084;2022-11-20T02:45:22;32.97;;;18.90;;
9188;SDS011;34313;50.780;6.084;2022-11-20T02:47:48;32.40;;;18.50;;
9188;SDS011;34313;50.780;6.084;2022-11-20T02:50:14;30.87;;;17.33;;
9188;SDS011;34313;50.780;6.084;2022-11-20T02:52:40;31.23;;;16.30;;
9188;SDS011;34313;50.780;6.084;2022-11-20T02:55:05;33.10;;;16.43;;
9188;SDS011;34313;50.780;6.084;2022-11-20T02:57:31;28.80;;;16.30;;
9188;SDS011;34313;50.780;6.084;2022-11-20T02:59:56;30.60;;;16.50;;
9188;SDS011;34313;50.780;6.084;2022-11-20T03:02:22;29.37;;;15.70;;
9188;SDS011;34313;50.780;6.084;2022-11-20T03:04:47;29.50;;;15.83;;
9188;SDS011;34313;50.780;6.084;2022-11-20T03:07:12;30.60;;;16.43;;
9188;SDS011;34313;50.780;6.084;2022-11-20T03:09:38;30.13;;;16.13;;
9188;SDS011;34313;50.780;6.084;2022-11-20T03:12:03;33.20;;;16.40;;
9188;SDS011;34313;50.780;6.084;2022-11-20T03:14:29;34.80;;;16.70;;
9188;SDS011;34313;50.780;6.084;2022-11-20T03:16:55;30.40;;;16.13;;
9188;SDS011;34313;50.780;6.084;2022-11-20T03:19:20;29.50;;;15.90;;
9188;SDS011;34313;50.780;6.084;2022-11-20T03:21:46;33.90;;;17.60;;
9188;SDS011;34313;50.780;6.084;2022-11-20T03:24:12;32.00;;;17.10;;
9188;SDS011;34313;50.780;6.084;2022-11-20T03:26:38;28.90;;;15.50;;
9188;SDS011;34313;50.780;6.084;2022-11-20T03:29:04;33.33;;;16.63;;
9188;SDS011;34313;50.780;6.084;2022-11-20T03:31:31;34.43;;;16.50;;
9188;SDS011;34313;50.780;6.084;2022-11-20T03:33:58;28.33;;;15.30;;
9188;SDS011;34313;50.780;6.084;2022-11-20T03:36:25;28.13;;;15.17;;
9188;SDS011;34313;50.780;6.084;2022-11-20T03:38:53;32.03;;;16.67;;
9188;SDS011;34313;50.780;6.084;2022-11-20T03:41:20;29.40;;;16.10;;
9188;SDS011;34313;50.780;6.084;2022-11-20T03:43:51;33.50;;;15.50;;
9188;SDS011;34313;50.780;6.084;2022-11-20T03:46:18;31.90;;;16.50;;
9188;SDS011;34313;50.780;6.084;2022-11-20T03:48:44;36.20;;;18.10;;
9188;SDS011;34313;50.780;6.084;2022-11-20T03:51:11;30.80;;;16.70;;
9188;SDS011;34313;50.780;6.084;2022-11-20T03:53:37;35.53;;;18.80;;
9188;SDS011;34313;50.780;6.084;2022-11-20T03:56:03;41.33;;;18.97;;
9188;SDS011;34313;50.780;6.084;2022-11-20T03:58:29;41.03;;;20.10;;
9188;SDS011;34313;50.780;6.084;2022-11-20T04:00:54;38.17;;;19.40;;
9188;SDS011;34313;50.780;6.084;2022-11-20T04:03:19;42.00;;;20.93;;
9188;SDS011;34313;50.780;6.084;2022-11-20T04:05:45;36.20;;;17.90;;
9188;SDS011;34313;50.780;6.084;2022-11-20T04:08:10;40.80;;;21.20;;
9188;SDS011;34313;50.780;6.084;2022-11-20T04:10:36;38.70;;;20.07;;
9188;SDS011;34313;50.780;6.084;2022-11-20T04:13:01;37.07;;;19.40;;
9188;SDS011;34313;50.780;6.084;2022-11-20T04:15:26;39.83;;;20.93;;
9188;SDS011;34313;50.780;6.084;2022-11-20T04:17:51;45.97;;;20.07;;
9188;SDS011;34313;50.780;6.084;2022-11-20T04:20:18;44.23;;;22.43;;
9188;SDS011;34313;50.780;6.084;2022-11-20T04:22:44;37.87;;;20.03;;
9188;SDS011;34313;50.780;6.084;2022-11-20T04:25:09;36.23;;;19.90;;
9188;SDS011;34313;50.780;6.084;2022-11-20T04:27:35;41.27;;;21.70;;
9188;SDS011;34313;50.780;6.084;2022-11-20T04:30:00;44.50;;;22.70;;
9188;SDS011;34313;50.780;6.084;2022-11-20T04:32:25;42.13;;;20.97;;
9188;SDS011;34313;50.780;6.084;2022-11-20T04:34:51;42.67;;;21.10;;
9188;SDS011;34313;50.780;6.084;2022-11-20T04:37:16;45.53;;;23.23;;
9188;SDS011;34313;50.780;6.084;2022-11-20T04:39:42;43.73;;;23.40;;
9188;SDS011;34313;50.780;6.084;2022-11-20T04:42:08;42.83;;;22.43;;
9188;SDS011;34313;50.780;6.084;2022-11-20T04:44:52;45.43;;;22.90;;
9188;SDS011;34313;50.780;6.084;2022-11-20T04:47:18;49.70;;;23.90;;
9188;SDS011;34313;50.780;6.084;2022-11-20T04:49:43;46.70;;;23.40;;
9188;SDS011;34313;50.780;6.084;2022-11-20T04:52:09;50.20;;;24.07;;
9188;SDS011;34313;50.780;6.084;2022-11-20T04:54:34;47.60;;;23.80;;
9188;SDS011;34313;50.780;6.084;2022-11-20T04:56:59;44.13;;;21.73;;
9188;SDS011;34313;50.780;6.084;2022-11-20T04:59:25;56.40;;;24.70;;
9188;SDS011;34313;50.780;6.084;2022-11-20T05:01:50;47.93;;;24.70;;
9188;SDS011;34313;50.780;6.084;2022-11-20T05:04:16;48.57;;;25.00;;
9188;SDS011;34313;50.780;6.084;2022-11-20T05:06:41;52.17;;;24.60;;
9188;SDS011;34313;50.780;6.084;2022-11-20T05:09:06;50.73;;;24.83;;
9188;SDS011;34313;50.780;6.084;2022-11-20T05:11:32;53.60;;;24.90;;
9188;SDS011;34313;50.780;6.084;2022-11-20T05:13:58;51.60;;;25.47;;
9188;SDS011;34313;50.780;6.084;2022-11-20T05:16:24;51.13;;;26.13;;
9188;SDS011;34313;50.780;6.084;2022-11-20T05:18:51;43.70;;;23.33;;
9188;SDS011;34313;50.780;6.084;2022-11-20T05:21:18;44.50;;;23.50;;
9188;SDS011;34313;50.780;6.084;2022-11-20T05:23:43;49.20;;;24.63;;
9188;SDS011;34313;50.780;6.084;2022-11-20T05:26:14;47.03;;;25.27;;
9188;SDS011;34313;50.780;6.084;2022-11-20T05:28:41;47.53;;;24.63;;
9188;SDS011;34313;50.780;6.084;2022-11-20T05:31:07;51.33;;;25.13;;
9188;SDS011;34313;50.780;6.084;2022-11-20T05:33:34;45.40;;;23.67;;
9188;SDS011;34313;50.780;6.084;2022-11-20T05:36:01;48.77;;;24.90;;
9188;SDS011;34313;50.780;6.084;2022-11-20T05:38:27;48.60;;;26.27;;
9188;SDS011;34313;50.780;6.084;2022-11-20T05:40:53;54.47;;;26.10;;
9188;SDS011;34313;50.780;6.084;2022-11-20T05:43:18;48.90;;;24.33;;
9188;SDS011;34313;50.780;6.084;2022-11-20T05:45:51;51.83;;;25.27;;
9188;SDS011;34313;50.780;6.084;2022-11-20T05:48:19;50.90;;;24.80;;
9188;SDS011;34313;50.780;6.084;2022-11-20T05:50:45;51.37;;;24.70;;
9188;SDS011;34313;50.780;6.084;2022-11-20T05:53:10;48.47;;;26.37;;
9188;SDS011;34313;50.780;6.084;2022-11-20T05:55:36;56.70;;;26.97;;
9188;SDS011;34313;50.780;6.084;2022-11-20T05:58:01;40.23;;;23.73;;
9188;SDS011;34313;50.780;6.084;2022-11-20T06:00:27;45.37;;;23.67;;
9188;SDS011;34313;50.780;6.084;2022-11-20T06:02:52;49.50;;;23.40;;
9188;SDS011;34313;50.780;6.084;2022-11-20T06:05:17;42.37;;;23.90;;
9188;SDS011;34313;50.780;6.084;2022-11-20T06:07:43;46.33;;;23.77;;
9188;SDS011;34313;50.780;6.084;2022-11-20T06:10:08;45.47;;;24.07;;
9188;SDS011;34313;50.780;6.084;2022-11-20T06:12:34;42.57;;;23.17;;
9188;SDS011;34313;50.780;6.084;2022-11-20T06:14:59;43.77;;;23.73;;
9188;SDS011;34313;50.780;6.084;2022-11-20T06:17:25;46.20;;;23.37;;
9188;SDS011;34313;50.780;6.084;2022-11-20T06:19:51;47.30;;;23.50;;
9188;SDS011;34313;50.780;6.084;2022-11-20T06:22:16;45.43;;;23.13;;
9188;SDS011;34313;50.780;6.084;2022-11-20T06:24:41;44.77;;;24.73;;
9188;SDS011;34313;50.780;6.084;2022-11-20T06:27:07;43.77;;;24.13;;
9188;SDS011;34313;50.780;6.084;2022-11-20T06:29:32;43.97;;;24.57;;
9188;SDS011;34313;50.780;6.084;2022-11-20T06:31:58;41.93;;;21.47;;
9188;SDS011;34313;50.780;6.084;2022-11-20T06:34:23;40.43;;;21.50;;
9188;SDS011;34313;50.780;6.084;2022-11-20T06:36:48;34.93;;;20.20;;
9188;SDS011;34313;50.780;6.084;2022-11-20T06:39:14;36.23;;;19.63;;
9188;SDS011;34313;50.780;6.084;2022-11-20T06:41:39;45.17;;;23.77;;
9188;SDS011;34313;50.780;6.084;2022-11-20T06:44:04;37.47;;;20.73;;
9188;SDS011;34313;50.780;6.084;2022-11-20T06:46:30;40.87;;;20.23;;
9188;SDS011;34313;50.780;6.084;2022-11-20T06:48:56;34.33;;;18.80;;
9188;SDS011;34313;50.780;6.084;2022-11-20T06:51:23;35.53;;;19.10;;
9188;SDS011;34313;50.780;6.084;2022-11-20T06:53:48;35.03;;;19.60;;
9188;SDS011;34313;50.780;6.084;2022-11-20T06:56:13;36.63;;;18.33;;
9188;SDS011;34313;50.780;6.084;2022-11-20T06:58:39;42.13;;;20.20;;
9188;SDS011;34313;50.780;6.084;2022-11-20T07:01:11;40.60;;;19.20;;
9188;SDS011;34313;50.780;6.084;2022-11-20T07:03:39;36.60;;;20.30;;
9188;SDS011;34313;50.780;6.084;2022-11-20T07:06:05;37.17;;;19.60;;
9188;SDS011;34313;50.780;6.084;2022-11-20T07:08:31;33.43;;;19.00;;
9188;SDS011;34313;50.780;6.084;2022-11-20T07:10:57;33.20;;;19.10;;
9188;SDS011;34313;50.780;6.084;2022-11-20T07:13:25;36.70;;;18.70;;
9188;SDS011;34313;50.780;6.084;2022-11-20T07:15:51;37.27;;;20.60;;
9188;SDS011;34313;50.780;6.084;2022-11-20T07:18:16;38.10;;;18.87;;
9188;SDS011;34313;50.780;6.084;2022-11-20T07:20:41;34.00;;;18.97;;
9188;SDS011;34313;50.780;6.084;2022-11-20T07:23:07;33.33;;;19.23;;
9188;SDS011;34313;50.780;6.084;2022-11-20T07:25:32;34.43;;;19.27;;
9188;SDS011;34313;50.780;6.084;2022-11-20T07:27:58;33.30;;;19.60;;
9188;SDS011;34313;50.780;6.084;2022-11-20T07:30:24;33.50;;;19.20;;
9188;SDS011;34313;50.780;6.084;2022-11-20T07:32:53;35.40;;;18.77;;
9188;SDS011;34313;50.780;6.084;2022-11-20T07:35:20;35.73;;;18.90;;
9188;SDS011;34313;50.780;6.084;2022-11-20T07:37:46;33.70;;;18.80;;
9188;SDS011;34313;50.780;6.084;2022-11-20T07:40:12;35.20;;;18.90;;
9188;SDS011;34313;50.780;6.084;2022-11-20T07:42:38;36.60;;;19.00;;
9188;SDS011;34313;50.780;6.084;2022-11-20T07:45:04;30.17;;;17.97;;
9188;SDS011;34313;50.780;6.084;2022-11-20T07:47:34;33.87;;;20.23;;
9188;SDS011;34313;50.780;6.084;2022-11-20T07:50:01;36.27;;;18.30;;
9188;SDS011;34313;50.780;6.084;2022-11-20T07:52:26;34.03;;;19.00;;
9188;SDS011;34313;50.780;6.084;2022-11-20T07:54:51;37.33;;;19.63;;
9188;SDS011;34313;50.780;6.084;2022-11-20T07:57:17;36.40;;;19.40;;
9188;SDS011;34313;50.780;6.084;2022-11-20T07:59:42;33.60;;;17.97;;
9188;SDS011;34313;50.780;6.084;2022-11-20T08:02:09;37.60;;;19.17;;
9188;SDS011;34313;50.780;6.084;2022-11-20T08:04:35;32.30;;;17.47;;
9188;SDS011;34313;50.780;6.084;2022-11-20T08:07:00;32.03;;;18.37;;
9188;SDS011;34313;50.780;6.084;2022-11-20T08:09:26;36.63;;;18.50;;
9188;SDS011;34313;50.780;6.084;2022-11-20T08:11:51;31.50;;;17.07;;
9188;SDS011;34313;50.780;6.084;2022-11-20T08:14:35;33.13;;;18.60;;
9188;SDS011;34313;50.780;6.084;2022-11-20T08:17:01;32.67;;;19.03;;
9188;SDS011;34313;50.780;6.084;2022-11-20T08:19:26;34.53;;;20.43;;
9188;SDS011;34313;50.780;6.084;2022-11-20T08:21:52;35.53;;;18.73;;
9188;SDS011;34313;50.780;6.084;2022-11-20T08:24:17;31.20;;;17.97;;
9188;SDS011;34313;50.780;6.084;2022-11-20T08:26:42;30.10;;;17.90;;
9188;SDS011;34313;50.780;6.084;2022-11-20T08:29:08;34.80;;;19.07;;
9188;SDS011;34313;50.780;6.084;2022-11-20T08:31:33;33.13;;;18.10;;
9188;SDS011;34313;50.780;6.084;2022-11-20T08:33:58;33.30;;;17.40;;
9188;SDS011;34313;50.780;6.084;2022-11-20T08:36:24;26.90;;;16.77;;
9188;SDS011;34313;50.780;6.084;2022-11-20T08:38:50;27.20;;;16.03;;
9188;SDS011;34313;50.780;6.084;2022-11-20T08:41:17;30.63;;;16.83;;
9188;SDS011;34313;50.780;6.084;2022-11-20T08:43:49;33.33;;;16.63;;
9188;SDS011;34313;50.780;6.084;2022-11-20T08:46:18;33.43;;;18.40;;
9188;SDS011;34313;50.780;6.084;2022-11-20T08:48:44;34.33;;;17.40;;
9188;SDS011;34313;50.780;6.084;2022-11-20T08:51:10;34.77;;;18.53;;
9188;SDS011;34313;50.780;6.084;2022-11-20T08:53:36;32.50;;;17.93;;
9188;SDS011;34313;50.780;6.084;2022-11-20T08:56:03;35.47;;;18.30;;
9188;SDS011;34313;50.780;6.084;2022-11-20T08:58:28;39.60;;;18.97;;
9188;SDS011;34313;50.780;6.084;2022-11-20T09:00:54;40.63;;;17.63;;
9188;SDS011;34313;50.780;6.084;2022-11-20T09:03:19;38.80;;;19.20;;
9188;SDS011;34313;50.780;6.084;2022-11-20T09:05:44;38.60;;;17.70;;
9188;SDS011;34313;50.780;6.084;2022-11-20T09:08:10;39.37;;;18.77;;
9188;SDS011;34313;50.780;6.084;2022-11-20T09:10:36;42.67;;;19.13;;
9188;SDS011;34313;50.780;6.084;2022-11-20T09:13:04;41.80;;;20.03;;
9188;SDS011;34313;50.780;6.084;2022-11-20T09:15:30;36.77;;;18.97;;
9188;SDS011;34313;50.780;6.084;2022-11-20T09:17:56;39.70;;;18.90;;
9188;SDS011;34313;50.780;6.084;2022-11-20T09:20:24;39.80;;;19.17;;
9188;SDS011;34313;50.780;6.084;2022-11-20T09:22:50;38.47;;;19.47;;
9188;SDS011;34313;50.780;6.084;2022-11-20T09:25:16;43.03;;;19.43;;
9188;SDS011;34313;50.780;6.084;2022-11-20T09:27:42;46.43;;;20.70;;
9188;SDS011;34313;50.780;6.084;2022-11-20T09:30:09;42.23;;;19.70;;
9188;SDS011;34313;50.780;6.084;2022-11-20T09:32:35;40.60;;;19.73;;
9188;SDS011;34313;50.780;6.084;2022-11-20T09:35:01;36.93;;;18.43;;
9188;SDS011;34313;50.780;6.084;2022-11-20T09:37:26;40.83;;;18.83;;
9188;SDS011;34313;50.780;6.084;2022-11-20T09:39:52;45.63;;;20.30;;
9188;SDS011;34313;50.780;6.084;2022-11-20T09:50:49;40.13;;;20.80;;
9188;SDS011;34313;50.780;6.084;2022-11-20T09:56:10;42.17;;;20.27;;
9188;SDS011;34313;50.780;6.084;2022-11-20T09:58:40;40.37;;;19.93;;
9188;SDS011;34313;50.780;6.084;2022-11-20T10:01:10;42.23;;;20.43;;
9188;SDS011;34313;50.780;6.084;2022-11-20T10:03:41;40.07;;;19.80;;
9188;SDS011;34313;50.780;6.084;2022-11-20T10:06:11;43.67;;;19.90;;
9188;SDS011;34313;50.780;6.084;2022-11-20T10:08:41;42.30;;;20.60;;
9188;SDS011;34313;50.780;6.084;2022-11-20T10:11:29;40.90;;;20.60;;
9188;SDS011;34313;50.780;6.084;2022-11-20T10:16:56;41.73;;;21.10;;
9188;SDS011;34313;50.780;6.084;2022-11-20T10:19:38;38.70;;;18.30;;
9188;SDS011;34313;50.780;6.084;2022-11-20T10:25:12;36.87;;;18.53;;
9188;SDS011;34313;50.780;6.084;2022-11-20T10:30:21;37.53;;;18.60;;
9188;SDS011;34313;50.780;6.084;2022-11-20T10:33:00;35.43;;;18.23;;
9188;SDS011;34313;50.780;6.084;2022-11-20T10:35:35;39.67;;;19.67;;
9188;SDS011;34313;50.780;6.084;2022-11-20T10:38:05;36.60;;;19.20;;
9188;SDS011;34313;50.780;6.084;2022-11-20T10:40:57;38.07;;;18.47;;
9188;SDS011;34313;50.780;6.084;2022-11-20T10:43:44;37.67;;;17.80;;
9188;SDS011;34313;50.780;6.084;2022-11-20T10:46:17;35.30;;;18.63;;
9188;SDS011;34313;50.780;6.084;2022-11-20T10:48:47;33.50;;;16.67;;
9188;SDS011;34313;50.780;6.084;2022-11-20T10:56:52;32.63;;;16.47;;
9188;SDS011;34313;50.780;6.084;2022-11-20T11:02:01;31.53;;;17.57;;
9188;SDS011;34313;50.780;6.084;2022-11-20T11:04:30;30.37;;;16.20;;
9188;SDS011;34313;50.780;6.084;2022-11-20T11:07:10;29.23;;;15.17;;
9188;SDS011;34313;50.780;6.084;2022-11-20T11:09:42;26.43;;;14.07;;
9188;SDS011;34313;50.780;6.084;2022-11-20T11:12:11;25.50;;;14.20;;
9188;SDS011;34313;50.780;6.084;2022-11-20T11:14:43;23.87;;;13.90;;
9188;SDS011;34313;50.780;6.084;2022-11-20T11:17:18;25.67;;;13.83;;
9188;SDS011;34313;50.780;6.084;2022-11-20T11:22:52;24.50;;;13.57;;
9188;SDS011;34313;50.780;6.084;2022-11-20T11:27:51;18.90;;;11.93;;
9188;SDS011;34313;50.780;6.084;2022-11-20T11:30:18;23.13;;;12.57;;
9188;SDS011;34313;50.780;6.084;2022-11-20T11:32:45;20.17;;;11.73;;
9188;SDS011;34313;50.780;6.084;2022-11-20T11:35:21;18.47;;;10.63;;
9188;SDS011;34313;50.780;6.084;2022-11-20T11:37:53;20.93;;;11.70;;
9188;SDS011;34313;50.780;6.084;2022-11-20T11:40:27;20.57;;;11.00;;
9188;SDS011;34313;50.780;6.084;2022-11-20T11:42:57;21.50;;;11.70;;
9188;SDS011;34313;50.780;6.084;2022-11-20T11:46:02;18.10;;;10.03;;
9188;SDS011;34313;50.780;6.084;2022-11-20T11:48:54;18.50;;;10.93;;
9188;SDS011;34313;50.780;6.084;2022-11-20T11:51:20;19.23;;;10.23;;
9188;SDS011;34313;50.780;6.084;2022-11-20T11:53:46;15.03;;;8.80;;
9188;SDS011;34313;50.780;6.084;2022-11-20T11:56:11;15.67;;;9.37;;
9188;SDS011;34313;50.780;6.084;2022-11-20T11:58:46;22.03;;;10.43;;
9188;SDS011;34313;50.780;6.084;2022-11-20T12:03:42;17.53;;;9.00;;
9188;SDS011;34313;50.780;6.084;2022-11-20T12:06:14;16.30;;;9.10;;
9188;SDS011;34313;50.780;6.084;2022-11-20T12:14:18;12.10;;;7.10;;
9188;SDS011;34313;50.780;6.084;2022-11-20T12:16:48;17.07;;;7.40;;
9188;SDS011;34313;50.780;6.084;2022-11-20T12:19:15;10.73;;;6.70;;
9188;SDS011;34313;50.780;6.084;2022-11-20T12:24:44;10.40;;;6.30;;
9188;SDS011;34313;50.780;6.084;2022-11-20T12:30:17;16.83;;;6.60;;
9188;SDS011;34313;50.780;6.084;2022-11-20T12:32:51;7.50;;;5.07;;
9188;SDS011;34313;50.780;6.084;2022-11-20T12:43:29;9.83;;;5.43;;
9188;SDS011;34313;50.780;6.084;2022-11-20T12:51:44;10.20;;;4.07;;
9188;SDS011;34313;50.780;6.084;2022-11-20T12:57:00;11.67;;;4.60;;
9188;SDS011;34313;50.780;6.084;2022-11-20T12:59:46;6.10;;;3.80;;
9188;SDS011;34313;50.780;6.084;2022-11-20T13:02:18;6.50;;;3.30;;
9188;SDS011;34313;50.780;6.084;2022-11-20T13:05:16;5.20;;;3.43;;
9188;SDS011;34313;50.780;6.084;2022-11-20T13:07:45;6.23;;;3.30;;
9188;SDS011;34313;50.780;6.084;2022-11-20T13:12:57;5.57;;;3.30;;
9188;SDS011;34313;50.780;6.084;2022-11-20T13:18:08;14.53;;;3.03;;
9188;SDS011;34313;50.780;6.084;2022-11-20T13:20:36;5.50;;;3.00;;
9188;SDS011;34313;50.780;6.084;2022-11-20T13:23:06;5.87;;;2.80;;
9188;SDS011;34313;50.780;6.084;2022-11-20T13:25:35;3.70;;;2.90;;
9188;SDS011;34313;50.780;6.084;2022-11-20T13:30:36;5.20;;;2.40;;
9188;SDS011;34313;50.780;6.084;2022-11-20T13:36:19;6.37;;;2.37;;
9188;SDS011;34313;50.780;6.084;2022-11-20T13:38:48;6.60;;;2.70;;
9188;SDS011;34313;50.780;6.084;2022-11-20T13:41:26;7.47;;;2.27;;
9188;SDS011;34313;50.780;6.084;2022-11-20T13:44:05;4.73;;;2.47;;
9188;SDS011;34313;50.780;6.084;2022-11-20T13:46:39;6.80;;;2.07;;
9188;SDS011;34313;50.780;6.084;2022-11-20T13:49:22;10.40;;;2.43;;
9188;SDS011;34313;50.780;6.084;2022-11-20T13:51:53;5.30;;;2.10;;
9188;SDS011;34313;50.780;6.084;2022-11-20T13:58:01;8.97;;;2.00;;
9188;SDS011;34313;50.780;6.084;2022-11-20T14:00:28;6.67;;;2.30;;
9188;SDS011;34313;50.780;6.084;2022-11-20T14:05:39;4.17;;;1.83;;
9188;SDS011;34313;50.780;6.084;2022-11-20T14:08:14;3.90;;;2.07;;
9188;SDS011;34313;50.780;6.084;2022-11-20T14:10:48;4.20;;;2.43;;
9188;SDS011;34313;50.780;6.084;2022-11-20T14:13:17;4.70;;;1.87;;
9188;SDS011;34313;50.780;6.084;2022-11-20T14:15:44;3.03;;;1.60;;
9188;SDS011;34313;50.780;6.084;2022-11-20T14:18:21;7.70;;;1.87;;
9188;SDS011;34313;50.780;6.084;2022-11-20T14:20:46;2.30;;;1.60;;
9188;SDS011;34313;50.780;6.084;2022-11-20T14:23:12;3.40;;;1.50;;
9188;SDS011;34313;50.780;6.084;2022-11-20T14:25:48;4.53;;;2.03;;
9188;SDS011;34313;50.780;6.084;2022-11-20T14:28:18;2.87;;;1.57;;
9188;SDS011;34313;50.780;6.084;2022-11-20T14:30:49;2.73;;;1.50;;
9188;SDS011;34313;50.780;6.084;2022-11-20T14:33:15;3.23;;;1.77;;
9188;SDS011;34313;50.780;6.084;2022-11-20T14:35:49;6.17;;;1.83;;
9188;SDS011;34313;50.780;6.084;2022-11-20T14:38:17;3.03;;;1.53;;
9188;SDS011;34313;50.780;6.084;2022-11-20T14:40:46;4.73;;;1.80;;
9188;SDS011;34313;50.780;6.084;2022-11-20T14:43:19;3.87;;;1.97;;
9188;SDS011;34313;50.780;6.084;2022-11-20T14:46:22;5.10;;;1.93;;
9188;SDS011;34313;50.780;6.084;2022-11-20T14:48:41;4.63;;;1.80;;
9188;SDS011;34313;50.780;6.084;2022-11-20T14:51:11;9.57;;;2.43;;
9188;SDS011;34313;50.780;6.084;2022-11-20T14:53:47;2.87;;;2.00;;
9188;SDS011;34313;50.780;6.084;2022-11-20T14:56:13;3.53;;;1.87;;
9188;SDS011;34313;50.780;6.084;2022-11-20T14:58:54;4.00;;;1.90;;
9188;SDS011;34313;50.780;6.084;2022-11-20T15:01:25;4.80;;;2.53;;
9188;SDS011;34313;50.780;6.084;2022-11-20T15:03:59;3.30;;;2.30;;
9188;SDS011;34313;50.780;6.084;2022-11-20T15:06:49;3.57;;;2.00;;
9188;SDS011;34313;50.780;6.084;2022-11-20T15:09:16;11.57;;;2.70;;
9188;SDS011;34313;50.780;6.084;2022-11-20T15:11:50;2.50;;;2.00;;
9188;SDS011;34313;50.780;6.084;2022-11-20T15:14:19;3.13;;;1.80;;
9188;SDS011;34313;50.780;6.084;2022-11-20T15:16:45;2.93;;;2.50;;
9188;SDS011;34313;50.780;6.084;2022-11-20T15:19:17;3.20;;;2.10;;
9188;SDS011;34313;50.780;6.084;2022-11-20T15:21:45;3.80;;;2.70;;
9188;SDS011;34313;50.780;6.084;2022-11-20T15:24:11;3.90;;;2.00;;
9188;SDS011;34313;50.780;6.084;2022-11-20T15:26:36;3.57;;;2.20;;
9188;SDS011;34313;50.780;6.084;2022-11-20T15:29:05;4.30;;;2.20;;
9188;SDS011;34313;50.780;6.084;2022-11-20T15:31:33;3.03;;;2.17;;
9188;SDS011;34313;50.780;6.084;2022-11-20T15:33:59;5.00;;;2.30;;
9188;SDS011;34313;50.780;6.084;2022-11-20T15:36:25;4.70;;;2.00;;
9188;SDS011;34313;50.780;6.084;2022-11-20T15:38:50;4.13;;;1.70;;
9188;SDS011;34313;50.780;6.084;2022-11-20T15:41:16;2.80;;;1.70;;
9188;SDS011;34313;50.780;6.084;2022-11-20T15:43:41;4.50;;;2.27;;
9188;SDS011;34313;50.780;6.084;2022-11-20T15:46:09;2.40;;;1.90;;
9188;SDS011;34313;50.780;6.084;2022-11-20T15:48:42;4.27;;;1.93;;
9188;SDS011;34313;50.780;6.084;2022-11-20T15:51:32;3.23;;;2.27;;
9188;SDS011;34313;50.780;6.084;2022-11-20T15:56:45;2.50;;;1.77;;
9188;SDS011;34313;50.780;6.084;2022-11-20T15:59:19;7.40;;;1.90;;
9188;SDS011;34313;50.780;6.084;2022-11-20T16:01:45;2.30;;;1.60;;
9188;SDS011;34313;50.780;6.084;2022-11-20T16:04:16;3.70;;;1.90;;
9188;SDS011;34313;50.780;6.084;2022-11-20T16:06:43;3.70;;;2.03;;
9188;SDS011;34313;50.780;6.084;2022-11-20T16:09:09;2.23;;;1.87;;
9188;SDS011;34313;50.780;6.084;2022-11-20T16:11:34;1.60;;;1.50;;
9188;SDS011;34313;50.780;6.084;2022-11-20T16:14:01;1.90;;;1.30;;
9188;SDS011;34313;50.780;6.084;2022-11-20T16:16:46;2.00;;;1.77;;
9188;SDS011;34313;50.780;6.084;2022-11-20T16:19:13;1.80;;;1.70;;
9188;SDS011;34313;50.780;6.084;2022-11-20T16:21:43;2.90;;;1.67;;